CST,Max TemperatureF,Mean TemperatureF,Min TemperatureF,Max Dew PointF,MeanDew PointF,Min DewpointF,Max Humidity, Mean Humidity, Min Humidity, Max Sea Level PressureIn, Mean Sea Level PressureIn, Min Sea Level PressureIn, Max VisibilityMiles, Mean VisibilityMiles, Min VisibilityMiles, Max Wind SpeedMPH, Mean Wind SpeedMPH, Max Gust SpeedMPH,PrecipitationIn, CloudCover, Events, WindDirDegrees
2012-12-1,72,65,57,59,56,53,88,76,59,30.02,29.91,29.81,10,10,7,32,17,44,0.00,6,,184
2012-12-2,72,62,51,61,56,50,100,86,55,30.05,29.97,29.91,10,6,0,23,9,29,0.00,2,Fog,191
2012-12-3,73,64,54,61,56,52,100,76,53,30.00,29.89,29.79,10,8,1,33,18,44,0.67,5,Rain-Thunderstorm,212
2012-12-4,60,48,36,50,37,30,88,63,36,30.34,30.20,30.01,10,10,10,14,6,26,0.02,1,Thunderstorm,15
2012-12-5,60,46,31,35,31,27,96,60,28,30.35,30.24,30.05,10,10,10,17,6,22,0.00,0,,134
2012-12-6,63,52,41,46,41,32,80,67,53,30.03,29.92,29.83,10,10,10,14,7,20,0.00,1,,153
2012-12-7,54,51,48,54,50,45,100,94,80,29.91,29.87,29.81,10,3,0,12,2,24,0.06,8,Fog-Rain,277
2012-12-8,48,46,44,47,45,43,100,95,93,29.96,29.90,29.84,4,3,2,12,6,14,0.00,8,,29
2012-12-9,48,37,26,46,39,15,100,86,61,30.10,29.89,29.79,10,6,2,21,9,29,0.03,7,Rain-Snow,352
2012-12-10,32,26,19,19,16,12,81,69,59,30.15,30.10,30.07,10,10,9,18,9,25,T,3,Snow,294
2012-12-11,44,31,18,21,18,14,85,60,40,30.21,30.15,30.10,10,10,9,15,8,20,0.00,0,Snow,208
2012-12-12,51,39,26,17,13,9,58,39,19,30.30,30.23,30.18,10,10,10,21,10,24,0.00,0,,184
2012-12-13,59,48,36,25,20,16,44,37,26,30.24,30.18,30.12,10,10,10,28,15,33,0.00,0,,183
2012-12-14,55,49,43,43,29,20,83,52,30,30.14,29.99,29.74,10,10,6,25,15,44,0.09,5,Rain-Thunderstorm,170
2012-12-15,61,53,45,47,40,36,90,64,46,29.75,29.69,29.61,10,10,10,32,16,39,0.01,1,,207
2012-12-16,60,47,34,40,37,32,100,82,42,29.77,29.72,29.62,10,6,0,15,6,20,0.00,3,Fog,9
2012-12-17,44,40,35,39,36,32,100,88,76,29.83,29.78,29.73,9,3,0,14,8,17,0.01,6,Fog,304
2012-12-18,58,47,35,37,33,31,82,61,40,29.86,29.79,29.72,10,10,10,20,8,40,0.00,0,,214
2012-12-19,64,50,35,57,45,32,84,73,61,29.86,29.64,29.38,10,10,9,20,10,28,0.00,4,,130
2012-12-20,62,45,27,46,25,15,86,69,52,30.32,29.92,29.37,10,9,2,37,22,47,T,4,Snow,283
2012-12-21,48,34,20,19,16,12,77,51,25,30.40,30.33,30.25,10,10,10,8,5,,0.00,0,,161
2012-12-22,63,47,31,27,17,10,54,34,13,30.24,30.09,29.96,10,10,10,23,11,32,0.00,0,,192
2012-12-23,58,44,30,44,36,27,82,61,39,29.94,29.89,29.83,10,10,6,14,7,17,0.00,1,,317
2012-12-24,33,26,19,25,20,18,100,82,63,30.09,30.04,29.94,8,5,2,17,8,24,0.00,2,,6
2012-12-25,29,25,20,21,17,12,88,78,68,30.15,30.09,30.03,10,9,6,24,15,33,T,6,Snow,27
2012-12-26,32,25,17,18,14,10,74,64,54,30.26,30.20,30.14,10,10,10,20,10,24,0.00,5,,348
2012-12-27,41,31,21,25,21,17,84,66,48,30.16,30.04,29.92,10,10,10,14,6,17,0.00,1,,141
2012-12-28,36,30,23,27,24,12,85,72,58,30.12,30.00,29.94,10,8,6,18,7,26,0.00,7,,299
2012-12-29,36,28,19,16,14,13,77,60,43,30.41,30.30,30.12,10,9,7,17,9,21,0.00,3,,268
2012-12-30,44,33,21,23,17,15,77,54,31,30.43,30.34,30.22,10,10,10,21,11,24,0.00,0,,185
2012-12-31,37,35,32,36,32,20,100,74,48,30.22,30.12,30.01,10,3,1,16,6,22,0.18,8,Rain-Snow,137